sensor_id;sensor_type;location;lat;lon;timestamp;pressure;altitude;pressure_sealevel;temperature
75431;BMP280;64127;51.488;5.462;2023-12-07T00:01:33;101772.34;;;6.03
75431;BMP280;64127;51.488;5.462;2023-12-07T00:04:06;101774.88;;;6.01
75431;BMP280;64127;51.488;5.462;2023-12-07T00:06:38;101768.75;;;6.01
75431;BMP280;64127;51.488;5.462;2023-12-07T00:09:13;101772.94;;;5.99
75431;BMP280;64127;51.488;5.462;2023-12-07T00:11:45;101771.00;;;5.96
75431;BMP280;64127;51.488;5.462;2023-12-07T00:14:17;101766.38;;;5.92
75431;BMP280;64127;51.488;5.462;2023-12-07T00:16:49;101764.88;;;5.96
75431;BMP280;64127;51.488;5.462;2023-12-07T00:19:21;101757.69;;;5.92
75431;BMP280;64127;51.488;5.462;2023-12-07T00:21:53;101759.25;;;5.90
75431;BMP280;64127;51.488;5.462;2023-12-07T00:24:25;101758.22;;;5.88
75431;BMP280;64127;51.488;5.462;2023-12-07T00:26:57;101750.44;;;5.88
75431;BMP280;64127;51.488;5.462;2023-12-07T00:29:29;101758.09;;;5.86
75431;BMP280;64127;51.488;5.462;2023-12-07T00:32:02;101744.53;;;5.79
75431;BMP280;64127;51.488;5.462;2023-12-07T00:34:34;101760.34;;;5.82
75431;BMP280;64127;51.488;5.462;2023-12-07T00:37:06;101762.13;;;5.83
75431;BMP280;64127;51.488;5.462;2023-12-07T00:39:41;101762.25;;;5.84
75431;BMP280;64127;51.488;5.462;2023-12-07T00:42:13;101754.78;;;5.77
75431;BMP280;64127;51.488;5.462;2023-12-07T00:44:45;101762.81;;;5.80
75431;BMP280;64127;51.488;5.462;2023-12-07T00:47:17;101766.09;;;5.78
75431;BMP280;64127;51.488;5.462;2023-12-07T00:49:49;101766.09;;;5.78
75431;BMP280;64127;51.488;5.462;2023-12-07T00:52:21;101755.47;;;5.75
75431;BMP280;64127;51.488;5.462;2023-12-07T00:54:54;101751.84;;;5.73
75431;BMP280;64127;51.488;5.462;2023-12-07T00:57:41;101758.72;;;5.72
75431;BMP280;64127;51.488;5.462;2023-12-07T01:00:13;101759.63;;;5.73
75431;BMP280;64127;51.488;5.462;2023-12-07T01:02:45;101756.94;;;5.71
75431;BMP280;64127;51.488;5.462;2023-12-07T01:05:18;101762.13;;;5.71
75431;BMP280;64127;51.488;5.462;2023-12-07T01:07:50;101756.59;;;5.67
75431;BMP280;64127;51.488;5.462;2023-12-07T01:10:22;101754.91;;;5.67
75431;BMP280;64127;51.488;5.462;2023-12-07T01:12:54;101762.78;;;5.69
75431;BMP280;64127;51.488;5.462;2023-12-07T01:15:26;101766.19;;;5.68
75431;BMP280;64127;51.488;5.462;2023-12-07T01:17:58;101769.34;;;5.63
75431;BMP280;64127;51.488;5.462;2023-12-07T01:20:31;101779.75;;;5.63
75431;BMP280;64127;51.488;5.462;2023-12-07T01:23:03;101788.34;;;5.62
75431;BMP280;64127;51.488;5.462;2023-12-07T01:25:35;101782.91;;;5.59
75431;BMP280;64127;51.488;5.462;2023-12-07T01:28:07;101748.75;;;5.43
75431;BMP280;64127;51.488;5.462;2023-12-07T01:30:39;101774.09;;;5.57
75431;BMP280;64127;51.488;5.462;2023-12-07T01:33:11;101769.91;;;5.59
75431;BMP280;64127;51.488;5.462;2023-12-07T01:35:43;101768.34;;;5.61
75431;BMP280;64127;51.488;5.462;2023-12-07T01:38:15;101768.22;;;5.60
75431;BMP280;64127;51.488;5.462;2023-12-07T01:40:47;101770.13;;;5.62
75431;BMP280;64127;51.488;5.462;2023-12-07T01:43:21;101771.97;;;5.63
75431;BMP280;64127;51.488;5.462;2023-12-07T01:45:56;101773.78;;;5.65
75431;BMP280;64127;51.488;5.462;2023-12-07T01:48:29;101778.97;;;5.65
75431;BMP280;64127;51.488;5.462;2023-12-07T01:51:02;101772.88;;;5.64
75431;BMP280;64127;51.488;5.462;2023-12-07T01:53:35;101771.97;;;5.63
75431;BMP280;64127;51.488;5.462;2023-12-07T01:56:09;101782.56;;;5.67
75431;BMP280;64127;51.488;5.462;2023-12-07T01:58:43;101776.59;;;5.68
75431;BMP280;64127;51.488;5.462;2023-12-07T02:01:15;101769.59;;;5.67
75431;BMP280;64127;51.488;5.462;2023-12-07T02:03:47;101774.78;;;5.67
75431;BMP280;64127;51.488;5.462;2023-12-07T02:06:20;101770.94;;;5.61
75431;BMP280;64127;51.488;5.462;2023-12-07T02:08:52;101786.53;;;5.61
75431;BMP280;64127;51.488;5.462;2023-12-07T02:11:24;101783.34;;;5.54
75431;BMP280;64127;51.488;5.462;2023-12-07T02:13:56;101780.94;;;5.45
75431;BMP280;64127;51.488;5.462;2023-12-07T02:17:01;101786.69;;;5.41
75431;BMP280;64127;51.488;5.462;2023-12-07T02:22:43;101795.38;;;5.30
75431;BMP280;64127;51.488;5.462;2023-12-07T02:28:18;101795.69;;;5.23
75431;BMP280;64127;51.488;5.462;2023-12-07T02:30:50;101798.91;;;5.21
75431;BMP280;64127;51.488;5.462;2023-12-07T02:33:22;101800.94;;;5.13
75431;BMP280;64127;51.488;5.462;2023-12-07T02:35:54;101803.03;;;5.07
75431;BMP280;64127;51.488;5.462;2023-12-07T02:38:28;101787.81;;;4.90
75431;BMP280;64127;51.488;5.462;2023-12-07T02:41:01;101789.88;;;4.94
75431;BMP280;64127;51.488;5.462;2023-12-07T02:43:34;101801.41;;;4.97
75431;BMP280;64127;51.488;5.462;2023-12-07T02:46:06;101784.16;;;4.98
75431;BMP280;64127;51.488;5.462;2023-12-07T02:48:38;101797.63;;;5.04
75431;BMP280;64127;51.488;5.462;2023-12-07T02:51:10;101800.66;;;4.98
75431;BMP280;64127;51.488;5.462;2023-12-07T02:53:42;101787.19;;;4.92
75431;BMP280;64127;51.488;5.462;2023-12-07T02:56:14;101791.47;;;4.92
75431;BMP280;64127;51.488;5.462;2023-12-07T02:58:46;101787.06;;;4.91
75431;BMP280;64127;51.488;5.462;2023-12-07T03:01:18;101791.94;;;4.98
75431;BMP280;64127;51.488;5.462;2023-12-07T03:03:52;101791.50;;;5.03
75431;BMP280;64127;51.488;5.462;2023-12-07T03:06:24;101790.88;;;5.06
75431;BMP280;64127;51.488;5.462;2023-12-07T03:08:56;101798.41;;;5.03
75431;BMP280;64127;51.488;5.462;2023-12-07T03:11:28;101794.53;;;4.98
75431;BMP280;64127;51.488;5.462;2023-12-07T03:13:59;101786.38;;;4.93
75431;BMP280;64127;51.488;5.462;2023-12-07T03:16:31;101783.78;;;4.93
75431;BMP280;64127;51.488;5.462;2023-12-07T03:19:03;101797.44;;;4.91
75431;BMP280;64127;51.488;5.462;2023-12-07T03:21:40;101798.53;;;4.83
75431;BMP280;64127;51.488;5.462;2023-12-07T03:24:12;101808.78;;;4.81
75431;BMP280;64127;51.488;5.462;2023-12-07T03:26:44;101798.28;;;4.80
75431;BMP280;64127;51.488;5.462;2023-12-07T03:29:16;101796.81;;;4.83
75431;BMP280;64127;51.488;5.462;2023-12-07T03:31:48;101799.56;;;4.85
75431;BMP280;64127;51.488;5.462;2023-12-07T03:34:20;101805.41;;;4.82
75431;BMP280;64127;51.488;5.462;2023-12-07T03:36:52;101800.63;;;4.77
75431;BMP280;64127;51.488;5.462;2023-12-07T03:39:24;101775.03;;;4.59
75431;BMP280;64127;51.488;5.462;2023-12-07T03:41:57;101804.44;;;4.70
75431;BMP280;64127;51.488;5.462;2023-12-07T03:44:29;101811.44;;;4.71
75431;BMP280;64127;51.488;5.462;2023-12-07T03:47:02;101796.03;;;4.63
75431;BMP280;64127;51.488;5.462;2023-12-07T03:49:34;101806.41;;;4.63
75431;BMP280;64127;51.488;5.462;2023-12-07T03:52:07;101809.81;;;4.62
75431;BMP280;64127;51.488;5.462;2023-12-07T03:54:39;101819.66;;;4.66
75431;BMP280;64127;51.488;5.462;2023-12-07T03:57:11;101823.25;;;4.68
75431;BMP280;64127;51.488;5.462;2023-12-07T03:59:43;101825.19;;;4.70
75431;BMP280;64127;51.488;5.462;2023-12-07T04:02:15;101827.13;;;4.73
75431;BMP280;64127;51.488;5.462;2023-12-07T04:04:47;101829.06;;;4.75
75431;BMP280;64127;51.488;5.462;2023-12-07T04:07:19;101829.19;;;4.77
75431;BMP280;64127;51.488;5.462;2023-12-07T04:09:51;101839.56;;;4.77
75431;BMP280;64127;51.488;5.462;2023-12-07T04:12:24;101835.94;;;4.75
75431;BMP280;64127;51.488;5.462;2023-12-07T04:14:56;101825.56;;;4.75
75431;BMP280;64127;51.488;5.462;2023-12-07T04:17:28;101826.81;;;4.80
75431;BMP280;64127;51.488;5.462;2023-12-07T04:20:00;101820.38;;;4.75
75431;BMP280;64127;51.488;5.462;2023-12-07T04:22:33;101834.66;;;4.70
75431;BMP280;64127;51.488;5.462;2023-12-07T04:25:06;101846.47;;;4.66
75431;BMP280;64127;51.488;5.462;2023-12-07T04:27:38;101843.53;;;4.62
75431;BMP280;64127;51.488;5.462;2023-12-07T04:30:11;101845.31;;;4.63
75431;BMP280;64127;51.488;5.462;2023-12-07T04:32:43;101845.47;;;4.64
75431;BMP280;64127;51.488;5.462;2023-12-07T04:35:15;101844.31;;;4.60
75431;BMP280;64127;51.488;5.462;2023-12-07T04:37:47;101847.03;;;4.62
75431;BMP280;64127;51.488;5.462;2023-12-07T04:40:19;101846.94;;;4.50
75431;BMP280;64127;51.488;5.462;2023-12-07T04:42:52;101849.56;;;4.40
75431;BMP280;64127;51.488;5.462;2023-12-07T04:45:24;101854.03;;;4.31
75431;BMP280;64127;51.488;5.462;2023-12-07T04:47:56;101848.97;;;4.23
75431;BMP280;64127;51.488;5.462;2023-12-07T04:50:29;101842.63;;;4.19
75431;BMP280;64127;51.488;5.462;2023-12-07T04:53:01;101839.00;;;4.17
75431;BMP280;64127;51.488;5.462;2023-12-07T04:55:33;101846.25;;;4.11
75431;BMP280;64127;51.488;5.462;2023-12-07T04:58:05;101839.13;;;4.08
75431;BMP280;64127;51.488;5.462;2023-12-07T05:00:37;101833.94;;;4.08
75431;BMP280;64127;51.488;5.462;2023-12-07T05:03:09;101831.25;;;4.07
75431;BMP280;64127;51.488;5.462;2023-12-07T05:05:42;101830.84;;;4.13
75431;BMP280;64127;51.488;5.462;2023-12-07T05:08:14;101827.06;;;4.19
75431;BMP280;64127;51.488;5.462;2023-12-07T05:10:46;101814.81;;;4.28
75431;BMP280;64127;51.488;5.462;2023-12-07T05:13:18;101809.13;;;4.32
75431;BMP280;64127;51.488;5.462;2023-12-07T05:15:50;101813.91;;;4.38
75431;BMP280;64127;51.488;5.462;2023-12-07T05:18:22;101808.72;;;4.38
75431;BMP280;64127;51.488;5.462;2023-12-07T05:20:54;101807.81;;;4.37
75431;BMP280;64127;51.488;5.462;2023-12-07T05:23:26;101812.09;;;4.37
75431;BMP280;64127;51.488;5.462;2023-12-07T05:25:59;101816.13;;;4.33
75431;BMP280;64127;51.488;5.462;2023-12-07T05:28:31;101807.97;;;4.29
75431;BMP280;64127;51.488;5.462;2023-12-07T05:31:03;101802.63;;;4.37
75431;BMP280;64127;51.488;5.462;2023-12-07T05:33:35;101798.34;;;4.38
75431;BMP280;64127;51.488;5.462;2023-12-07T05:36:08;101813.75;;;4.46
75431;BMP280;64127;51.488;5.462;2023-12-07T05:38:40;101806.19;;;4.49
75431;BMP280;64127;51.488;5.462;2023-12-07T05:41:12;101805.81;;;4.55
75431;BMP280;64127;51.488;5.462;2023-12-07T05:43:44;101783.75;;;4.50
75431;BMP280;64127;51.488;5.462;2023-12-07T05:46:17;101789.16;;;4.63
75431;BMP280;64127;51.488;5.462;2023-12-07T05:48:49;101797.06;;;4.65
75431;BMP280;64127;51.488;5.462;2023-12-07T05:51:24;101791.25;;;4.57
75431;BMP280;64127;51.488;5.462;2023-12-07T05:53:56;101801.88;;;4.60
75431;BMP280;64127;51.488;5.462;2023-12-07T05:56:28;101798.28;;;4.58
75431;BMP280;64127;51.488;5.462;2023-12-07T05:59:00;101794.28;;;4.51
75431;BMP280;64127;51.488;5.462;2023-12-07T06:01:32;101797.59;;;4.60
75431;BMP280;64127;51.488;5.462;2023-12-07T06:04:08;101801.63;;;4.57
75431;BMP280;64127;51.488;5.462;2023-12-07T06:06:41;101792.47;;;4.50
75431;BMP280;64127;51.488;5.462;2023-12-07T06:09:13;101796.63;;;4.48
75431;BMP280;64127;51.488;5.462;2023-12-07T06:11:45;101804.69;;;4.41
75431;BMP280;64127;51.488;5.462;2023-12-07T06:14:17;101805.22;;;4.37
75431;BMP280;64127;51.488;5.462;2023-12-07T06:16:50;101801.84;;;4.38
75431;BMP280;64127;51.488;5.462;2023-12-07T06:19:22;101795.63;;;4.36
75431;BMP280;64127;51.488;5.462;2023-12-07T06:21:54;101803.78;;;4.41
75431;BMP280;64127;51.488;5.462;2023-12-07T06:24:26;101797.25;;;4.46
75431;BMP280;64127;51.488;5.462;2023-12-07T06:26:58;101798.66;;;4.52
75431;BMP280;64127;51.488;5.462;2023-12-07T06:29:31;101803.06;;;4.53
75431;BMP280;64127;51.488;5.462;2023-12-07T06:32:03;101802.97;;;4.52
75431;BMP280;64127;51.488;5.462;2023-12-07T06:34:40;101804.09;;;4.55
75431;BMP280;64127;51.488;5.462;2023-12-07T06:37:13;101806.16;;;4.59
75431;BMP280;64127;51.488;5.462;2023-12-07T06:39:45;101794.22;;;4.62
75431;BMP280;64127;51.488;5.462;2023-12-07T06:42:17;101791.75;;;4.63
75431;BMP280;64127;51.488;5.462;2023-12-07T06:44:49;101792.03;;;4.56
75431;BMP280;64127;51.488;5.462;2023-12-07T06:47:21;101779.97;;;4.56
75431;BMP280;64127;51.488;5.462;2023-12-07T06:49:54;101745.13;;;4.43
75431;BMP280;64127;51.488;5.462;2023-12-07T06:52:27;101772.81;;;4.64
75431;BMP280;64127;51.488;5.462;2023-12-07T06:55:00;101758.44;;;4.57
75431;BMP280;64127;51.488;5.462;2023-12-07T06:57:33;101773.72;;;4.65
75431;BMP280;64127;51.488;5.462;2023-12-07T07:00:07;101766.69;;;4.64
75431;BMP280;64127;51.488;5.462;2023-12-07T07:02:43;101759.59;;;4.61
75431;BMP280;64127;51.488;5.462;2023-12-07T07:05:15;101762.00;;;4.70
75431;BMP280;64127;51.488;5.462;2023-12-07T07:07:47;101778.06;;;4.76
75431;BMP280;64127;51.488;5.462;2023-12-07T07:10:19;101780.53;;;4.74
75431;BMP280;64127;51.488;5.462;2023-12-07T07:12:51;101781.97;;;4.71
75431;BMP280;64127;51.488;5.462;2023-12-07T07:15:23;101782.13;;;4.72
75431;BMP280;64127;51.488;5.462;2023-12-07T07:17:57;101776.69;;;4.69
75431;BMP280;64127;51.488;5.462;2023-12-07T07:20:29;101786.94;;;4.68
75431;BMP280;64127;51.488;5.462;2023-12-07T07:23:01;101782.75;;;4.70
75431;BMP280;64127;51.488;5.462;2023-12-07T07:25:33;101792.78;;;5.08
75431;BMP280;64127;51.488;5.462;2023-12-07T07:28:06;101782.81;;;4.81
75431;BMP280;64127;51.488;5.462;2023-12-07T07:30:39;101791.16;;;4.77
75431;BMP280;64127;51.488;5.462;2023-12-07T07:33:11;101795.66;;;4.80
75431;BMP280;64127;51.488;5.462;2023-12-07T07:35:43;101798.41;;;4.81
75431;BMP280;64127;51.488;5.462;2023-12-07T07:38:15;101804.75;;;4.85
75431;BMP280;64127;51.488;5.462;2023-12-07T07:40:47;101803.97;;;4.86
75431;BMP280;64127;51.488;5.462;2023-12-07T07:43:20;101796.59;;;4.80
75431;BMP280;64127;51.488;5.462;2023-12-07T07:45:53;101795.56;;;4.78
75431;BMP280;64127;51.488;5.462;2023-12-07T07:48:25;101792.19;;;4.79
75431;BMP280;64127;51.488;5.462;2023-12-07T07:50:58;101792.31;;;4.81
75431;BMP280;64127;51.488;5.462;2023-12-07T07:53:30;101790.38;;;4.78
75431;BMP280;64127;51.488;5.462;2023-12-07T07:56:03;101795.44;;;4.77
75431;BMP280;64127;51.488;5.462;2023-12-07T07:58:35;101794.53;;;4.76
75431;BMP280;64127;51.488;5.462;2023-12-07T08:01:07;101793.75;;;4.77
75431;BMP280;64127;51.488;5.462;2023-12-07T08:03:39;101784.28;;;4.78
75431;BMP280;64127;51.488;5.462;2023-12-07T08:06:11;101784.28;;;4.78
75431;BMP280;64127;51.488;5.462;2023-12-07T08:08:44;101787.88;;;4.80
75431;BMP280;64127;51.488;5.462;2023-12-07T08:11:16;101789.72;;;4.81
75431;BMP280;64127;51.488;5.462;2023-12-07T08:13:48;101780.78;;;4.77
75431;BMP280;64127;51.488;5.462;2023-12-07T08:16:22;101780.09;;;4.80
75431;BMP280;64127;51.488;5.462;2023-12-07T08:18:54;101761.75;;;4.67
75431;BMP280;64127;51.488;5.462;2023-12-07T08:21:26;101783.75;;;4.82
75431;BMP280;64127;51.488;5.462;2023-12-07T08:24:02;101789.84;;;4.82
75431;BMP280;64127;51.488;5.462;2023-12-07T08:26:34;101786.44;;;4.83
75431;BMP280;64127;51.488;5.462;2023-12-07T08:29:06;101793.00;;;4.90
75431;BMP280;64127;51.488;5.462;2023-12-07T08:31:41;101786.03;;;4.89
75431;BMP280;64127;51.488;5.462;2023-12-07T08:34:13;101796.41;;;4.89
75431;BMP280;64127;51.488;5.462;2023-12-07T08:36:46;101790.75;;;4.83
75431;BMP280;64127;51.488;5.462;2023-12-07T08:39:18;101795.13;;;4.84
75431;BMP280;64127;51.488;5.462;2023-12-07T08:41:50;101797.19;;;4.88
75431;BMP280;64127;51.488;5.462;2023-12-07T08:44:22;101781.50;;;4.86
75431;BMP280;64127;51.488;5.462;2023-12-07T08:46:54;101794.16;;;4.93
75431;BMP280;64127;51.488;5.462;2023-12-07T08:49:26;101782.00;;;4.92
75431;BMP280;64127;51.488;5.462;2023-12-07T08:51:58;101785.50;;;4.93
75431;BMP280;64127;51.488;5.462;2023-12-07T08:54:50;101791.22;;;4.89
75431;BMP280;64127;51.488;5.462;2023-12-07T08:57:22;101794.84;;;4.91
75431;BMP280;64127;51.488;5.462;2023-12-07T08:59:55;101806.00;;;4.90
75431;BMP280;64127;51.488;5.462;2023-12-07T09:02:27;101801.56;;;4.99
75431;BMP280;64127;51.488;5.462;2023-12-07T09:05:13;101799.19;;;5.02
75431;BMP280;64127;51.488;5.462;2023-12-07T09:07:46;101795.25;;;5.07
75431;BMP280;64127;51.488;5.462;2023-12-07T09:10:19;101785.78;;;5.07
75431;BMP280;64127;51.488;5.462;2023-12-07T09:12:51;101787.47;;;5.07
75431;BMP280;64127;51.488;5.462;2023-12-07T09:15:23;101772.69;;;5.06
75431;BMP280;64127;51.488;5.462;2023-12-07T09:17:55;101780.72;;;5.09
75431;BMP280;64127;51.488;5.462;2023-12-07T09:20:27;101789.81;;;5.04
75431;BMP280;64127;51.488;5.462;2023-12-07T09:22:59;101796.06;;;5.06
75431;BMP280;64127;51.488;5.462;2023-12-07T09:25:31;101788.28;;;5.06
75431;BMP280;64127;51.488;5.462;2023-12-07T09:28:14;101775.94;;;5.03
75431;BMP280;64127;51.488;5.462;2023-12-07T09:30:46;101767.72;;;5.09
75431;BMP280;64127;51.488;5.462;2023-12-07T09:33:18;101771.03;;;5.18
75431;BMP280;64127;51.488;5.462;2023-12-07T09:35:53;101762.91;;;5.25
75431;BMP280;64127;51.488;5.462;2023-12-07T09:38:25;101760.91;;;5.33
75431;BMP280;64127;51.488;5.462;2023-12-07T09:40:57;101762.28;;;5.39
75431;BMP280;64127;51.488;5.462;2023-12-07T09:43:29;101750.81;;;5.47
75431;BMP280;64127;51.488;5.462;2023-12-07T09:46:01;101760.88;;;5.54
75431;BMP280;64127;51.488;5.462;2023-12-07T09:48:37;101743.47;;;5.53
75431;BMP280;64127;51.488;5.462;2023-12-07T09:51:11;101753.06;;;5.66
75431;BMP280;64127;51.488;5.462;2023-12-07T09:53:47;101749.00;;;5.70
75431;BMP280;64127;51.488;5.462;2023-12-07T09:56:21;101740.66;;;5.74
75431;BMP280;64127;51.488;5.462;2023-12-07T09:58:53;101740.09;;;5.78
75431;BMP280;64127;51.488;5.462;2023-12-07T10:01:29;101726.41;;;5.80
75431;BMP280;64127;51.488;5.462;2023-12-07T10:04:20;101722.59;;;5.87
75431;BMP280;64127;51.488;5.462;2023-12-07T10:06:56;101714.69;;;5.97
75431;BMP280;64127;51.488;5.462;2023-12-07T10:09:28;101704.16;;;6.07
75431;BMP280;64127;51.488;5.462;2023-12-07T10:12:05;101692.97;;;6.20
75431;BMP280;64127;51.488;5.462;2023-12-07T10:14:38;101704.22;;;6.43
75431;BMP280;64127;51.488;5.462;2023-12-07T10:17:10;101697.13;;;6.66
75431;BMP280;64127;51.488;5.462;2023-12-07T10:19:42;101695.72;;;6.82
75431;BMP280;64127;51.488;5.462;2023-12-07T10:22:15;101685.25;;;6.94
75431;BMP280;64127;51.488;5.462;2023-12-07T10:24:48;101679.97;;;7.05
75431;BMP280;64127;51.488;5.462;2023-12-07T10:27:21;101681.13;;;7.22
75431;BMP280;64127;51.488;5.462;2023-12-07T10:29:53;101671.13;;;7.41
75431;BMP280;64127;51.488;5.462;2023-12-07T10:32:26;101665.94;;;7.68
75431;BMP280;64127;51.488;5.462;2023-12-07T10:34:58;101662.34;;;7.79
75431;BMP280;64127;51.488;5.462;2023-12-07T10:37:33;101663.31;;;8.07
75431;BMP280;64127;51.488;5.462;2023-12-07T10:40:05;101658.19;;;8.22
75431;BMP280;64127;51.488;5.462;2023-12-07T10:42:41;101653.84;;;8.22
75431;BMP280;64127;51.488;5.462;2023-12-07T10:45:20;101653.28;;;8.13
75431;BMP280;64127;51.488;5.462;2023-12-07T10:48:00;101649.25;;;8.05
75431;BMP280;64127;51.488;5.462;2023-12-07T10:50:42;101643.41;;;8.22
75431;BMP280;64127;51.488;5.462;2023-12-07T10:53:26;101636.53;;;8.50
75431;BMP280;64127;51.488;5.462;2023-12-07T10:56:02;101623.94;;;8.58
75431;BMP280;64127;51.488;5.462;2023-12-07T10:58:38;101605.19;;;8.50
75431;BMP280;64127;51.488;5.462;2023-12-07T11:01:13;101603.00;;;8.43
75431;BMP280;64127;51.488;5.462;2023-12-07T11:03:50;101617.63;;;8.54
75431;BMP280;64127;51.488;5.462;2023-12-07T11:06:24;101632.03;;;8.48
75431;BMP280;64127;51.488;5.462;2023-12-07T11:09:04;101608.09;;;8.55
75431;BMP280;64127;51.488;5.462;2023-12-07T11:11:54;101621.13;;;8.97
75431;BMP280;64127;51.488;5.462;2023-12-07T11:14:27;101619.53;;;8.99
75431;BMP280;64127;51.488;5.462;2023-12-07T11:16:59;101602.50;;;9.06
75431;BMP280;64127;51.488;5.462;2023-12-07T11:22:13;101574.09;;;9.41
75431;BMP280;64127;51.488;5.462;2023-12-07T11:24:57;101580.22;;;9.73
75431;BMP280;64127;51.488;5.462;2023-12-07T11:27:37;101569.72;;;9.87
75431;BMP280;64127;51.488;5.462;2023-12-07T11:30:10;101564.75;;;10.08
75431;BMP280;64127;51.488;5.462;2023-12-07T11:32:43;101559.56;;;10.24
75431;BMP280;64127;51.488;5.462;2023-12-07T11:35:16;101558.84;;;10.27
75431;BMP280;64127;51.488;5.462;2023-12-07T11:38:08;101558.28;;;10.16
75431;BMP280;64127;51.488;5.462;2023-12-07T11:40:41;101564.81;;;10.24
75431;BMP280;64127;51.488;5.462;2023-12-07T11:43:36;101559.34;;;10.20
75431;BMP280;64127;51.488;5.462;2023-12-07T11:46:12;101554.03;;;10.34
75431;BMP280;64127;51.488;5.462;2023-12-07T11:48:47;101543.56;;;10.34
75431;BMP280;64127;51.488;5.462;2023-12-07T11:51:20;101541.22;;;10.24
75431;BMP280;64127;51.488;5.462;2023-12-07T11:53:52;101537.94;;;10.12
75431;BMP280;64127;51.488;5.462;2023-12-07T11:56:24;101541.81;;;10.18
75431;BMP280;64127;51.488;5.462;2023-12-07T11:58:56;101544.75;;;10.25
75431;BMP280;64127;51.488;5.462;2023-12-07T12:01:29;101537.22;;;10.14
75431;BMP280;64127;51.488;5.462;2023-12-07T12:04:02;101526.06;;;10.02
75431;BMP280;64127;51.488;5.462;2023-12-07T12:06:37;101519.00;;;9.85
75431;BMP280;64127;51.488;5.462;2023-12-07T12:09:09;101509.41;;;9.69
75431;BMP280;64127;51.488;5.462;2023-12-07T12:11:48;101513.81;;;9.71
75431;BMP280;64127;51.488;5.462;2023-12-07T12:14:20;101506.25;;;9.91
75431;BMP280;64127;51.488;5.462;2023-12-07T12:16:52;101500.88;;;10.21
75431;BMP280;64127;51.488;5.462;2023-12-07T12:19:25;101499.00;;;10.34
75431;BMP280;64127;51.488;5.462;2023-12-07T12:22:04;101492.31;;;10.23
75431;BMP280;64127;51.488;5.462;2023-12-07T12:24:40;101493.72;;;10.02
75431;BMP280;64127;51.488;5.462;2023-12-07T12:27:14;101496.69;;;9.92
75431;BMP280;64127;51.488;5.462;2023-12-07T12:29:48;101488.97;;;9.79
75431;BMP280;64127;51.488;5.462;2023-12-07T12:32:20;101483.63;;;9.61
75431;BMP280;64127;51.488;5.462;2023-12-07T12:34:54;101481.06;;;9.46
75431;BMP280;64127;51.488;5.462;2023-12-07T12:37:26;101480.38;;;9.34
75431;BMP280;64127;51.488;5.462;2023-12-07T12:40:05;101473.66;;;9.23
75431;BMP280;64127;51.488;5.462;2023-12-07T12:42:38;101462.44;;;9.26
75431;BMP280;64127;51.488;5.462;2023-12-07T12:45:11;101457.00;;;9.37
75431;BMP280;64127;51.488;5.462;2023-12-07T12:47:45;101450.66;;;9.48
75431;BMP280;64127;51.488;5.462;2023-12-07T12:50:39;101436.59;;;9.46
75431;BMP280;64127;51.488;5.462;2023-12-07T12:53:11;101432.25;;;9.47
75431;BMP280;64127;51.488;5.462;2023-12-07T12:55:46;101429.38;;;9.42
75431;BMP280;64127;51.488;5.462;2023-12-07T12:58:19;101423.66;;;9.33
75431;BMP280;64127;51.488;5.462;2023-12-07T13:00:52;101419.53;;;9.22
75431;BMP280;64127;51.488;5.462;2023-12-07T13:03:24;101418.41;;;9.17
75431;BMP280;64127;51.488;5.462;2023-12-07T13:05:56;101410.19;;;9.11
75431;BMP280;64127;51.488;5.462;2023-12-07T13:08:30;101404.09;;;9.10
75431;BMP280;64127;51.488;5.462;2023-12-07T13:11:05;101395.34;;;9.10
75431;BMP280;64127;51.488;5.462;2023-12-07T13:13:37;101402.09;;;9.06
75431;BMP280;64127;51.488;5.462;2023-12-07T13:16:10;101401.78;;;9.00
75431;BMP280;64127;51.488;5.462;2023-12-07T13:18:44;101390.13;;;8.95
75431;BMP280;64127;51.488;5.462;2023-12-07T13:21:16;101380.72;;;8.83
75431;BMP280;64127;51.488;5.462;2023-12-07T13:23:48;101378.22;;;8.70
75431;BMP280;64127;51.488;5.462;2023-12-07T13:26:21;101364.00;;;8.50
75431;BMP280;64127;51.488;5.462;2023-12-07T13:28:55;101364.38;;;8.41
75431;BMP280;64127;51.488;5.462;2023-12-07T13:31:27;101372.84;;;8.37
75431;BMP280;64127;51.488;5.462;2023-12-07T13:33:59;101368.88;;;8.29
75431;BMP280;64127;51.488;5.462;2023-12-07T13:36:37;101371.38;;;8.28
75431;BMP280;64127;51.488;5.462;2023-12-07T13:39:09;101373.53;;;8.20
75431;BMP280;64127;51.488;5.462;2023-12-07T13:41:59;101364.16;;;8.09
75431;BMP280;64127;51.488;5.462;2023-12-07T13:44:36;101355.19;;;8.04
75431;BMP280;64127;51.488;5.462;2023-12-07T13:47:08;101355.00;;;8.01
75431;BMP280;64127;51.488;5.462;2023-12-07T13:49:41;101353.00;;;7.97
75431;BMP280;64127;51.488;5.462;2023-12-07T13:52:13;101348.06;;;7.87
75431;BMP280;64127;51.488;5.462;2023-12-07T13:54:48;101339.16;;;7.83
75431;BMP280;64127;51.488;5.462;2023-12-07T13:57:25;101312.84;;;7.65
75431;BMP280;64127;51.488;5.462;2023-12-07T13:59:57;101334.38;;;7.76
75431;BMP280;64127;51.488;5.462;2023-12-07T14:02:29;101316.00;;;7.75
75431;BMP280;64127;51.488;5.462;2023-12-07T14:05:01;101305.69;;;7.76
75431;BMP280;64127;51.488;5.462;2023-12-07T14:07:34;101307.19;;;7.73
75431;BMP280;64127;51.488;5.462;2023-12-07T14:10:06;101294.78;;;7.69
75431;BMP280;64127;51.488;5.462;2023-12-07T14:12:39;101303.50;;;7.69
75431;BMP280;64127;51.488;5.462;2023-12-07T14:15:11;101302.59;;;7.69
75431;BMP280;64127;51.488;5.462;2023-12-07T14:17:43;101299.91;;;7.67
75431;BMP280;64127;51.488;5.462;2023-12-07T14:20:24;101307.03;;;7.70
75431;BMP280;64127;51.488;5.462;2023-12-07T14:23:19;101293.81;;;7.67
75431;BMP280;64127;51.488;5.462;2023-12-07T14:25:52;101288.19;;;7.60
75431;BMP280;64127;51.488;5.462;2023-12-07T14:28:32;101276.31;;;7.51
75431;BMP280;64127;51.488;5.462;2023-12-07T14:31:07;101263.91;;;7.47
75431;BMP280;64127;51.488;5.462;2023-12-07T14:33:46;101267.69;;;7.52
75431;BMP280;64127;51.488;5.462;2023-12-07T14:36:19;101270.38;;;7.53
75431;BMP280;64127;51.488;5.462;2023-12-07T14:38:51;101261.59;;;7.51
75431;BMP280;64127;51.488;5.462;2023-12-07T14:41:23;101229.91;;;7.31
75431;BMP280;64127;51.488;5.462;2023-12-07T14:43:55;101254.31;;;7.46
75431;BMP280;64127;51.488;5.462;2023-12-07T14:46:28;101248.00;;;7.42
75431;BMP280;64127;51.488;5.462;2023-12-07T14:49:00;101261.66;;;7.38
75431;BMP280;64127;51.488;5.462;2023-12-07T14:51:34;101262.47;;;7.37
75431;BMP280;64127;51.488;5.462;2023-12-07T14:54:07;101274.59;;;7.37